USHHUSRR

Guest
Details From USHH - KHANTY MANSIYSK
To USRR - SURGUT
Flight Number -
Tags generated
Created
Modified
Stats Distance 126 nm / 234 km
Max Altitude 23,700 ft / 7,224 m
Waypoints 4
Social Downloads 1
Likes 0
Share VATSIM

Download

Looking for another format? Having issues loading an existing format? Contact us
Advertisement - Login to hide

Notes

Basic altitude profile: - Ascent Rate: 2500ft/min - Ascent Speed: 250kts - Cruise Altitude: 35000ft - Cruise Speed: 420kts - Descent Rate: 1500ft/min - Descent Speed: 250kts Options: - Use NATs: yes - Use PACOTS: yes - Use low airways: yes - Use high airways: yes

Route

USHH ZJ R22 STELA USRR

ID Type Via Altitude Latitude Longitude Leg Dist Tot Dist Heading (true) Name
O USHH APT - 0 ft / 0 m 61.02848˚ 69.08607˚ - 0 nm - KHANTY MANSIYSK
ZJ VOR - 400 ft / 122 m 61.03333˚ 69.12694˚ 1 nm 1 nm 76° / 76° KHANTY-MANSIYSK VOR-DME
STELA FIX R22 (AWY-LO) 23,700 ft / 7,224 m 61.21722˚ 70.93194˚ 53 nm 54 nm 77° / 79° -
O USRR APT - 0 ft / 0 m 61.34369˚ 73.40184˚ 71 nm 126 nm 83° / 85° SURGUT

Altitude Profile

Advertisement - Login to hide

USHH

Details ICAO USHH (HMA)
Name KHANTY MANSIYSK
Region Russia
Timezone Asia/Yekaterinburg (UTC+5.0)
Stats Elevation 141 ft / 43 m (AMSL)
Location 61.028482° 69.086067°
Runways 1
Magnetic Variation 17.769° E

METAR

USHH 110000Z 02002MPS 340V050 9999 -SN BKN022 M13/M15 Q1023 R06/490250 TEMPO 2000 SN BKN003 RMK QFE764

Decode

TAF

TAF USHH 102255Z 1100/1124 01003MPS 4000 -SN BR SCT005 OVC011 TEMPO 1100/1105 3100 BR BKN003 OVC011

Decode

Departure Runways

ID Width Length Bearing (true) Bearing (mag) Surface Threshold Offset Overrun Length
06 148 ft / 45 m 9,154 ft / 2,790 m 75.33° 57.56° Asphalt 0 ft / 0 m 195 ft / 59 m
24 148 ft / 45 m 9,154 ft / 2,790 m 255.38° 237.61° Asphalt 0 ft / 0 m 195 ft / 59 m

USRR

Details ICAO USRR (SGC)
Name SURGUT
Region Russia
Timezone Asia/Yekaterinburg (UTC+5.0)
Stats Elevation 200 ft / 61 m (AMSL)
Location 61.343693° 73.401842°
Runways 1
Magnetic Variation 17.100° E

METAR

USRR 110000Z VRB01MPS 6000 BKN007 M15/M17 Q1022 R07/450240 TEMPO SCT004 RMK OBST OBSC QFE762

Decode

TAF

TAF TAF USRR 102255Z 1100/1124 03003MPS 3100 BR BKN004 TEMPO 1100/1105 0800 FZFG VV002 BECMG 1105/1106 9999 NSW BKN011 TEMPO 1106/1115 3100 -SN BR OVC005

Decode

Destination Runways

ID Width Length Bearing (true) Bearing (mag) Surface Threshold Offset Overrun Length
07 148 ft / 45 m 9,112 ft / 2,778 m 89.72° 72.62° Asphalt 0 ft / 0 m 165 ft / 50 m
25 148 ft / 45 m 9,112 ft / 2,778 m 269.76° 252.66° Asphalt 0 ft / 0 m 165 ft / 50 m

Popular Alternatives